createdAt,value
2023-02-11T00:00:50.335Z,37.00
2023-02-11T00:03:23.211Z,37.83
2023-02-11T00:06:01.138Z,34.05
2023-02-11T00:08:33.677Z,37.33
2023-02-11T00:11:06.609Z,40.95
2023-02-11T00:13:39.492Z,37.15
2023-02-11T00:16:14.801Z,37.93
2023-02-11T00:18:47.320Z,36.25
2023-02-11T00:21:25.914Z,41.10
2023-02-11T00:24:00.143Z,41.85
2023-02-11T00:26:35.903Z,38.92
2023-02-11T00:29:09.099Z,38.67
2023-02-11T00:31:42.074Z,37.17
2023-02-11T00:34:14.971Z,36.35
2023-02-11T00:36:49.538Z,37.17
2023-02-11T00:39:21.915Z,37.20
2023-02-11T00:41:54.850Z,38.58
2023-02-11T00:44:27.162Z,40.78
2023-02-11T00:46:59.580Z,39.50
2023-02-11T00:49:32.098Z,39.70
2023-02-11T00:52:05.238Z,38.60
2023-02-11T00:57:11.257Z,45.25
2023-02-11T00:59:43.760Z,43.10
2023-02-11T01:02:16.199Z,37.13
2023-02-11T01:04:48.827Z,42.58
2023-02-11T01:07:21.497Z,43.40
2023-02-11T01:09:53.981Z,42.88
2023-02-11T01:12:26.526Z,40.05
2023-02-11T01:14:59.592Z,45.43
2023-02-11T01:17:42.740Z,37.45
2023-02-11T01:20:25.127Z,39.18
2023-02-11T01:22:57.828Z,40.90
2023-02-11T01:25:30.264Z,36.65
2023-02-11T01:28:03.066Z,38.95
2023-02-11T01:30:35.649Z,40.10
2023-02-11T01:33:08.808Z,37.00
2023-02-11T01:35:42.336Z,38.95
2023-02-11T01:38:24.359Z,38.88
2023-02-11T01:41:06.898Z,40.25
2023-02-11T01:43:43.967Z,36.93
2023-02-11T01:46:35.240Z,42.23
2023-02-11T01:49:24.651Z,38.02
2023-02-11T01:52:04.728Z,47.27
2023-02-11T01:54:58.912Z,43.20
2023-02-11T01:57:33.577Z,42.58
2023-02-11T02:00:28.500Z,39.23
2023-02-11T02:03:20.315Z,43.75
2023-02-11T02:06:04.824Z,43.25
2023-02-11T02:11:25.098Z,45.23
2023-02-11T02:13:57.681Z,50.75
2023-02-11T02:16:34.807Z,48.60
2023-02-11T02:19:36.102Z,56.10
2023-02-11T02:22:18.930Z,43.23
2023-02-11T02:25:31.081Z,47.38
2023-02-11T02:28:29.893Z,43.92
2023-02-11T02:31:18.891Z,46.23
2023-02-11T02:34:04.353Z,48.10
2023-02-11T02:36:54.780Z,45.17
2023-02-11T02:39:30.562Z,39.35
2023-02-11T02:42:04.144Z,41.37
2023-02-11T02:44:36.898Z,38.20
2023-02-11T02:47:10.129Z,41.45
2023-02-11T02:49:42.700Z,40.90
2023-02-11T02:52:53.788Z,42.62
2023-02-11T02:55:54.862Z,41.25
2023-02-11T02:58:38.502Z,42.23
2023-02-11T03:01:38.664Z,44.35
2023-02-11T03:04:48.896Z,44.18
2023-02-11T03:07:32.079Z,45.50
2023-02-11T03:10:15.481Z,53.80
2023-02-11T03:12:49.094Z,44.15
2023-02-11T03:15:21.542Z,48.33
2023-02-11T03:17:55.412Z,41.13
2023-02-11T03:20:27.826Z,43.60
2023-02-11T03:23:11.721Z,49.80
2023-02-11T03:25:54.194Z,47.17
2023-02-11T03:28:33.449Z,46.45
2023-02-11T03:31:19.114Z,41.65
2023-02-11T03:34:05.642Z,43.70
2023-02-11T03:36:46.257Z,43.20
2023-02-11T03:39:26.077Z,44.08
2023-02-11T03:41:59.058Z,43.83
2023-02-11T03:44:36.073Z,41.20
2023-02-11T03:47:11.454Z,43.60
2023-02-11T03:49:43.992Z,45.85
2023-02-11T03:52:16.698Z,43.98
2023-02-11T03:54:50.746Z,41.20
2023-02-11T03:57:23.122Z,41.45
2023-02-11T03:59:58.495Z,42.40
2023-02-11T04:02:35.091Z,43.73
2023-02-11T04:05:08.902Z,43.17
2023-02-11T04:07:41.371Z,41.33
2023-02-11T04:10:14.564Z,47.55
2023-02-11T04:12:48.232Z,44.63
2023-02-11T04:15:21.212Z,47.70
2023-02-11T04:17:53.826Z,41.40
2023-02-11T04:20:26.736Z,48.00
2023-02-11T04:22:59.246Z,46.10
2023-02-11T04:25:32.162Z,47.80
2023-02-11T04:28:04.895Z,44.95
2023-02-11T04:30:37.617Z,50.10
2023-02-11T04:33:10.425Z,49.83
2023-02-11T04:35:44.604Z,50.90
2023-02-11T04:38:17.889Z,44.53
2023-02-11T04:40:51.273Z,53.75
2023-02-11T04:43:23.789Z,58.28
2023-02-11T04:46:20.035Z,51.53
2023-02-11T04:48:53.694Z,51.15
2023-02-11T04:51:26.431Z,49.20
2023-02-11T04:54:00.637Z,53.42
2023-02-11T04:56:33.712Z,48.38
2023-02-11T04:59:06.194Z,52.03
2023-02-11T05:01:39.584Z,50.83
2023-02-11T05:04:12.647Z,44.53
2023-02-11T05:06:45.798Z,48.60
2023-02-11T05:09:18.895Z,52.75
2023-02-11T05:11:51.890Z,47.15
2023-02-11T05:14:24.262Z,47.58
2023-02-11T05:16:56.757Z,46.10
2023-02-11T05:19:29.620Z,48.98
2023-02-11T05:22:03.836Z,49.10
2023-02-11T05:24:37.523Z,46.60
2023-02-11T05:27:10.019Z,48.92
2023-02-11T05:29:42.700Z,47.58
2023-02-11T05:32:15.075Z,66.45
2023-02-11T05:34:47.751Z,51.13
2023-02-11T05:37:21.590Z,50.38
2023-02-11T05:39:53.954Z,49.20
2023-02-11T05:42:26.718Z,45.65
2023-02-11T05:44:59.375Z,47.05
2023-02-11T05:47:32.246Z,43.73
2023-02-11T05:50:05.771Z,49.35
2023-02-11T05:52:38.532Z,42.45
2023-02-11T05:55:11.430Z,67.67
2023-02-11T05:57:43.825Z,48.92
2023-02-11T06:00:17.397Z,53.30
2023-02-11T06:02:50.052Z,48.73
2023-02-11T06:05:22.730Z,41.90
2023-02-11T06:07:55.839Z,47.13
2023-02-11T06:10:29.756Z,45.12
2023-02-11T06:13:02.914Z,41.55
2023-02-11T06:15:35.434Z,42.08
2023-02-11T06:18:08.254Z,42.65
2023-02-11T06:20:41.718Z,40.00
2023-02-11T06:23:14.195Z,39.18
2023-02-11T06:26:04.272Z,40.40
2023-02-11T06:28:41.672Z,48.80
2023-02-11T06:31:12.547Z,42.78
2023-02-11T06:33:45.143Z,42.95
2023-02-11T06:36:19.577Z,37.28
2023-02-11T06:38:52.668Z,39.33
2023-02-11T06:41:25.600Z,40.17
2023-02-11T06:43:58.168Z,45.65
2023-02-11T06:46:30.840Z,41.73
2023-02-11T06:49:03.390Z,42.75
2023-02-11T06:51:36.206Z,42.53
2023-02-11T06:54:08.788Z,42.65
2023-02-11T06:56:42.891Z,38.80
2023-02-11T06:59:21.912Z,42.90
2023-02-11T07:01:54.582Z,37.53
2023-02-11T07:04:27.017Z,40.30
2023-02-11T07:06:59.683Z,41.75
2023-02-11T07:09:32.229Z,46.53
2023-02-11T07:12:27.337Z,43.02
2023-02-11T07:15:00.193Z,43.75
2023-02-11T07:17:32.935Z,41.73
2023-02-11T07:20:07.469Z,40.67
2023-02-11T07:22:40.422Z,38.75
2023-02-11T07:25:12.793Z,43.50
2023-02-11T07:27:45.853Z,42.90
2023-02-11T07:30:18.459Z,37.98
2023-02-11T07:32:50.904Z,41.23
2023-02-11T07:35:24.281Z,45.83
2023-02-11T07:37:57.185Z,43.00
2023-02-11T07:40:31.774Z,42.48
2023-02-11T07:43:04.456Z,44.20
2023-02-11T07:45:39.708Z,47.05
2023-02-11T07:48:12.035Z,47.23
2023-02-11T07:50:45.403Z,44.93
2023-02-11T07:53:17.947Z,47.00
2023-02-11T07:55:51.436Z,53.10
2023-02-11T07:58:24.298Z,48.38
2023-02-11T08:00:59.001Z,47.43
2023-02-11T08:03:31.839Z,45.38
2023-02-11T08:06:13.324Z,51.02
2023-02-11T08:08:45.712Z,49.83
2023-02-11T08:11:28.202Z,49.42
2023-02-11T08:14:00.581Z,46.95
2023-02-11T08:16:35.309Z,54.08
2023-02-11T08:19:14.775Z,50.10
2023-02-11T08:21:47.234Z,50.15
2023-02-11T08:24:19.854Z,44.38
2023-02-11T08:26:54.117Z,48.02
2023-02-11T08:29:26.593Z,50.10
2023-02-11T08:31:58.968Z,51.33
2023-02-11T08:34:31.600Z,54.23
2023-02-11T08:37:04.395Z,50.85
2023-02-11T08:39:36.979Z,52.03
2023-02-11T08:42:09.547Z,47.25
2023-02-11T08:44:43.989Z,50.08
2023-02-11T08:47:16.452Z,57.08
2023-02-11T08:49:49.079Z,54.25
2023-02-11T08:52:21.829Z,61.30
2023-02-11T08:54:54.362Z,54.65
2023-02-11T08:57:27.010Z,58.83
2023-02-11T08:59:59.615Z,51.00
2023-02-11T09:02:32.032Z,56.75
2023-02-11T09:05:04.561Z,63.60
2023-02-11T09:07:38.595Z,58.50
2023-02-11T09:10:12.107Z,44.98
2023-02-11T09:12:44.417Z,55.38
2023-02-11T09:15:16.883Z,53.23
2023-02-11T09:17:49.230Z,49.70
2023-02-11T09:20:22.290Z,53.60
2023-02-11T09:22:55.440Z,55.10
2023-02-11T09:25:27.783Z,54.35
2023-02-11T09:28:00.629Z,53.52
2023-02-11T09:30:33.937Z,53.68
2023-02-11T09:33:07.057Z,51.05
2023-02-11T09:35:43.754Z,57.95
2023-02-11T09:38:16.896Z,54.10
2023-02-11T09:40:49.799Z,55.03
2023-02-11T09:43:32.506Z,56.80
2023-02-11T09:46:05.971Z,55.35
2023-02-11T09:48:42.163Z,59.80
2023-02-11T09:51:27.604Z,55.58
2023-02-11T09:54:05.447Z,53.92
2023-02-11T09:56:37.192Z,54.65
2023-02-11T09:59:17.883Z,53.33
2023-02-11T10:02:01.238Z,51.58
2023-02-11T10:04:58.362Z,56.10
2023-02-11T10:07:42.463Z,53.02
2023-02-11T10:10:39.508Z,57.23
2023-02-11T10:13:32.570Z,55.63
2023-02-11T10:16:39.287Z,57.13
2023-02-11T10:19:31.124Z,57.73
2023-02-11T10:22:19.974Z,60.50
2023-02-11T10:24:57.942Z,54.73
2023-02-11T10:27:35.358Z,54.98
2023-02-11T10:30:22.034Z,50.33
2023-02-11T10:33:23.008Z,53.35
2023-02-11T10:35:55.328Z,55.48
2023-02-11T10:38:29.008Z,59.55
2023-02-11T10:41:01.317Z,53.10
2023-02-11T10:43:34.049Z,58.83
2023-02-11T10:46:07.132Z,50.33
2023-02-11T10:48:52.961Z,49.63
2023-02-11T10:51:37.745Z,53.75
2023-02-11T10:54:15.243Z,56.95
2023-02-11T10:56:53.542Z,51.90
2023-02-11T10:59:37.046Z,55.58
2023-02-11T11:02:28.232Z,56.10
2023-02-11T11:05:08.025Z,52.62
2023-02-11T11:07:40.690Z,51.60
2023-02-11T11:10:32.670Z,54.08
2023-02-11T11:13:05.705Z,53.08
2023-02-11T11:15:38.199Z,53.40
2023-02-11T11:18:23.322Z,55.28
2023-02-11T11:21:25.375Z,56.55
2023-02-11T11:24:00.816Z,47.27
2023-02-11T11:26:49.092Z,52.53
2023-02-11T11:29:34.697Z,54.05
2023-02-11T11:32:28.300Z,49.80
2023-02-11T11:35:12.976Z,48.83
2023-02-11T11:37:46.221Z,53.50
2023-02-11T11:40:26.676Z,50.30
2023-02-11T11:43:22.663Z,51.77
2023-02-11T11:45:59.580Z,52.17
2023-02-11T11:48:39.478Z,51.23
2023-02-11T11:51:12.769Z,51.13
2023-02-11T11:54:10.186Z,50.23
2023-02-11T11:56:50.287Z,49.45
2023-02-11T11:59:23.062Z,53.17
2023-02-11T12:02:32.889Z,55.98
2023-02-11T12:05:27.353Z,56.33
2023-02-11T12:08:24.839Z,47.43
2023-02-11T12:11:23.383Z,54.42
2023-02-11T12:14:20.174Z,58.38
2023-02-11T12:17:29.001Z,51.98
2023-02-11T12:20:33.722Z,53.98
2023-02-11T12:23:29.014Z,54.03
2023-02-11T12:26:23.306Z,53.75
2023-02-11T12:29:42.935Z,54.10
2023-02-11T12:32:36.567Z,52.60
2023-02-11T12:35:35.312Z,51.70
2023-02-11T12:38:14.913Z,46.98
2023-02-11T12:41:22.245Z,52.05
2023-02-11T12:43:54.828Z,49.53
2023-02-11T12:46:37.309Z,51.60
2023-02-11T12:49:23.159Z,49.03
2023-02-11T12:52:25.663Z,46.70
2023-02-11T12:55:05.995Z,49.35
2023-02-11T12:57:39.118Z,46.63
2023-02-11T13:00:22.261Z,49.10
2023-02-11T13:03:13.832Z,61.35
2023-02-11T13:05:55.332Z,50.30
2023-02-11T13:08:46.322Z,44.35
2023-02-11T13:11:36.092Z,49.90
2023-02-11T13:14:16.470Z,44.65
2023-02-11T13:16:51.217Z,46.20
2023-02-11T13:19:31.510Z,46.40
2023-02-11T13:22:18.585Z,47.78
2023-02-11T13:25:06.900Z,38.65
2023-02-11T13:28:11.103Z,46.58
2023-02-11T13:30:45.199Z,47.05
2023-02-11T13:33:21.152Z,42.78
2023-02-11T13:36:04.465Z,40.10
2023-02-11T13:38:36.019Z,42.45
2023-02-11T13:41:18.279Z,37.78
2023-02-11T13:44:20.720Z,40.00
2023-02-11T13:47:02.515Z,37.08
2023-02-11T13:49:44.049Z,37.30
2023-02-11T13:52:33.955Z,34.13
2023-02-11T13:55:17.262Z,33.83
2023-02-11T13:58:17.617Z,36.10
2023-02-11T14:00:52.205Z,29.35
2023-02-11T14:03:48.558Z,34.67
2023-02-11T14:06:41.340Z,33.45
2023-02-11T14:09:21.610Z,27.52
2023-02-11T14:11:58.280Z,36.53
2023-02-11T14:14:33.597Z,30.05
2023-02-11T14:17:14.718Z,36.33
2023-02-11T14:19:49.454Z,30.62
2023-02-11T14:22:31.895Z,34.27
2023-02-11T14:25:05.918Z,21.82
2023-02-11T14:27:47.685Z,24.35
2023-02-11T14:30:36.563Z,25.70
2023-02-11T14:33:42.603Z,22.77
2023-02-11T14:36:54.627Z,25.60
2023-02-11T14:40:04.965Z,18.73
2023-02-11T14:42:38.051Z,25.88
2023-02-11T14:45:12.688Z,19.80
2023-02-11T14:48:02.876Z,25.23
2023-02-11T14:50:53.939Z,27.07
2023-02-11T14:53:27.171Z,26.33
2023-02-11T14:55:59.900Z,26.77
2023-02-11T15:01:10.650Z,23.75
2023-02-11T15:03:47.109Z,21.85
2023-02-11T15:06:49.832Z,23.45
2023-02-11T15:09:26.335Z,25.08
2023-02-11T15:11:59.839Z,23.05
2023-02-11T15:14:55.511Z,26.30
2023-02-11T15:17:31.876Z,29.10
2023-02-11T15:20:04.388Z,26.35
2023-02-11T15:22:39.825Z,26.40
2023-02-11T15:25:16.864Z,27.25
2023-02-11T15:27:53.034Z,26.35
2023-02-11T15:30:32.245Z,29.42
2023-02-11T15:33:06.928Z,28.40
2023-02-11T15:35:42.916Z,26.87
2023-02-11T15:38:15.630Z,34.73
2023-02-11T15:40:58.585Z,31.42
2023-02-11T15:43:48.684Z,29.90
2023-02-11T15:46:42.216Z,29.50
2023-02-11T15:49:17.736Z,30.90
2023-02-11T15:51:50.805Z,28.67
2023-02-11T15:54:26.920Z,32.95
2023-02-11T15:57:08.161Z,29.45
2023-02-11T15:59:42.494Z,32.80
2023-02-11T16:02:32.125Z,29.40
2023-02-11T16:05:09.746Z,34.75
2023-02-11T16:07:53.142Z,33.60
2023-02-11T16:10:36.536Z,35.28
2023-02-11T16:13:14.066Z,35.00
2023-02-11T16:15:54.501Z,30.70
2023-02-11T16:18:40.439Z,45.20
2023-02-11T16:21:19.730Z,32.93
2023-02-11T16:23:57.746Z,32.45
2023-02-11T16:26:37.382Z,32.67
2023-02-11T16:29:22.278Z,32.95
2023-02-11T16:31:57.879Z,40.50
2023-02-11T16:34:30.446Z,36.28
2023-02-11T16:37:06.026Z,37.15
2023-02-11T16:39:38.509Z,36.13
2023-02-11T16:42:13.012Z,32.05
2023-02-11T16:44:45.586Z,35.48
2023-02-11T16:47:28.634Z,36.38
2023-02-11T16:50:01.444Z,34.58
2023-02-11T16:52:34.696Z,38.48
2023-02-11T16:55:08.793Z,38.98
2023-02-11T16:57:41.405Z,33.83
2023-02-11T17:00:17.134Z,38.42
2023-02-11T17:02:49.768Z,39.78
2023-02-11T17:05:25.312Z,37.17
2023-02-11T17:07:58.469Z,34.63
2023-02-11T17:10:30.991Z,33.38
2023-02-11T17:13:05.251Z,35.87
2023-02-11T17:15:37.967Z,35.35
2023-02-11T17:18:16.193Z,31.00
2023-02-11T17:20:48.620Z,33.80
2023-02-11T17:23:21.294Z,33.78
2023-02-11T17:25:57.997Z,29.77
2023-02-11T17:28:30.449Z,33.63
2023-02-11T17:31:03.465Z,33.28
2023-02-11T17:33:36.371Z,32.25
2023-02-11T17:36:09.933Z,33.13
2023-02-11T17:38:42.699Z,34.65
2023-02-11T17:41:15.101Z,31.45
2023-02-11T17:43:47.649Z,31.77
2023-02-11T17:46:24.616Z,33.00
2023-02-11T17:48:59.070Z,34.05
2023-02-11T17:51:34.753Z,32.80
2023-02-11T17:54:11.594Z,29.55
2023-02-11T17:56:44.274Z,30.45
2023-02-11T17:59:16.742Z,30.72
2023-02-11T18:01:49.471Z,33.20
2023-02-11T18:04:22.688Z,31.77
2023-02-11T18:07:07.554Z,32.88
2023-02-11T18:09:42.288Z,35.08
2023-02-11T18:12:17.213Z,32.15
2023-02-11T18:14:49.618Z,32.33
2023-02-11T18:17:43.797Z,33.60
2023-02-11T18:20:16.595Z,30.45
2023-02-11T18:22:48.955Z,33.05
2023-02-11T18:25:21.619Z,32.98
2023-02-11T18:27:54.947Z,34.00
2023-02-11T18:30:28.867Z,31.90
2023-02-11T18:33:01.287Z,34.53
2023-02-11T18:35:34.616Z,34.65
2023-02-11T18:38:07.084Z,31.75
2023-02-11T18:40:42.834Z,34.55
2023-02-11T18:43:16.349Z,31.15
2023-02-11T18:45:49.314Z,33.85
2023-02-11T18:48:22.566Z,29.87
2023-02-11T18:50:55.435Z,30.97
2023-02-11T18:53:27.806Z,32.23
2023-02-11T18:56:01.379Z,33.20
2023-02-11T18:58:35.238Z,35.70
2023-02-11T19:01:22.916Z,31.93
2023-02-11T19:03:58.682Z,34.53
2023-02-11T19:06:35.541Z,33.88
2023-02-11T19:09:12.901Z,33.28
2023-02-11T19:11:50.205Z,37.85
2023-02-11T19:14:31.571Z,36.28
2023-02-11T19:17:25.048Z,33.28
2023-02-11T19:19:57.490Z,35.10
2023-02-11T19:22:30.032Z,36.08
2023-02-11T19:25:02.370Z,34.35
2023-02-11T19:27:35.491Z,35.80
2023-02-11T19:30:10.040Z,36.90
2023-02-11T19:32:43.161Z,35.45
2023-02-11T19:35:15.758Z,36.10
2023-02-11T19:37:48.191Z,33.08
2023-02-11T19:40:21.491Z,36.70
2023-02-11T19:42:55.314Z,34.85
2023-02-11T19:45:28.610Z,35.52
2023-02-11T19:48:01.133Z,37.98
2023-02-11T19:50:34.170Z,37.60
2023-02-11T19:53:07.306Z,40.80
2023-02-11T19:55:46.751Z,41.58
2023-02-11T19:58:19.289Z,37.50
2023-02-11T20:00:51.856Z,38.70
2023-02-11T20:03:24.949Z,36.45
2023-02-11T20:05:57.710Z,37.13
2023-02-11T20:08:30.886Z,40.73
2023-02-11T20:11:19.941Z,42.78
2023-02-11T20:13:53.057Z,38.15
2023-02-11T20:16:41.020Z,40.10
2023-02-11T20:19:01.928Z,41.18
2023-02-11T20:21:34.820Z,41.30
2023-02-11T20:24:07.357Z,39.65
2023-02-11T20:26:42.637Z,40.20
2023-02-11T20:31:47.030Z,43.40
2023-02-11T20:34:21.423Z,44.23
2023-02-11T20:36:54.985Z,39.98
2023-02-11T20:39:28.354Z,37.33
2023-02-11T20:42:00.833Z,41.53
2023-02-11T20:44:35.470Z,38.92
2023-02-11T20:47:08.401Z,38.38
2023-02-11T20:49:40.809Z,38.08
2023-02-11T20:52:14.002Z,43.83
2023-02-11T20:54:47.293Z,41.23
2023-02-11T20:57:31.062Z,48.80
2023-02-11T21:00:03.539Z,39.18
2023-02-11T21:02:36.021Z,36.17
2023-02-11T21:05:08.849Z,41.02
2023-02-11T21:07:42.590Z,41.33
2023-02-11T21:10:15.247Z,39.58
2023-02-11T21:12:49.929Z,39.75
2023-02-11T21:17:56.482Z,42.33
2023-02-11T21:20:28.979Z,37.23
2023-02-11T21:23:01.986Z,40.98
2023-02-11T21:25:35.015Z,38.77
2023-02-11T21:28:07.502Z,35.63
2023-02-11T21:30:41.204Z,39.83
2023-02-11T21:33:14.714Z,36.85
2023-02-11T21:35:47.452Z,45.17
2023-02-11T21:38:20.024Z,42.23
2023-02-11T21:40:52.379Z,40.35
2023-02-11T21:43:25.105Z,38.13
2023-02-11T21:45:57.600Z,34.35
2023-02-11T21:48:30.179Z,39.73
2023-02-11T21:51:12.563Z,40.10
2023-02-11T21:53:45.043Z,40.55
2023-02-11T21:56:19.217Z,38.55
2023-02-11T21:58:54.217Z,37.93
2023-02-11T22:01:33.314Z,38.02
2023-02-11T22:04:06.018Z,36.77
2023-02-11T22:06:39.048Z,36.98
2023-02-11T22:09:12.148Z,35.25
2023-02-11T22:11:45.403Z,36.20
2023-02-11T22:14:19.180Z,40.40
2023-02-11T22:16:52.101Z,36.63
2023-02-11T22:19:25.155Z,36.05
2023-02-11T22:21:58.076Z,37.20
2023-02-11T22:24:31.875Z,35.73
2023-02-11T22:27:05.089Z,33.58
2023-02-11T22:32:10.704Z,32.90
2023-02-11T22:34:44.097Z,36.75
2023-02-11T22:37:16.952Z,35.92
2023-02-11T22:39:49.614Z,33.08
2023-02-11T22:42:23.055Z,39.10
2023-02-11T22:44:55.489Z,34.95
2023-02-11T22:47:39.078Z,31.73
2023-02-11T22:50:12.005Z,32.42
2023-02-11T22:52:45.052Z,34.63
2023-02-11T22:55:17.579Z,34.00
2023-02-11T22:57:50.714Z,32.75
2023-02-11T23:00:23.164Z,30.40
2023-02-11T23:02:56.841Z,31.65
2023-02-11T23:05:29.580Z,30.15
2023-02-11T23:08:02.096Z,30.27
2023-02-11T23:10:36.456Z,30.05
2023-02-11T23:13:10.618Z,28.25
2023-02-11T23:15:45.486Z,27.67
2023-02-11T23:18:18.035Z,32.15
2023-02-11T23:20:50.503Z,30.92
2023-02-11T23:23:23.078Z,30.80
2023-02-11T23:25:56.129Z,29.35
2023-02-11T23:28:29.770Z,31.25
2023-02-11T23:31:02.436Z,30.27
2023-02-11T23:33:34.967Z,26.68
2023-02-11T23:36:08.675Z,28.02
2023-02-11T23:38:41.716Z,27.52
2023-02-11T23:41:14.608Z,27.52
2023-02-11T23:44:03.078Z,27.67
2023-02-11T23:46:35.633Z,26.00
2023-02-11T23:49:08.239Z,24.25
2023-02-11T23:51:41.303Z,26.07
2023-02-11T23:54:15.029Z,25.02
2023-02-11T23:56:47.516Z,23.42
2023-02-11T23:59:20.037Z,22.07
